createdAt,value
2018-07-31T00:00:25.214Z,1011.32
2018-07-31T00:01:25.279Z,1011.32
2018-07-31T00:02:25.199Z,1011.33
2018-07-31T00:03:25.200Z,1011.31
2018-07-31T00:04:25.180Z,1011.35
2018-07-31T00:05:25.186Z,1011.27
2018-07-31T00:06:25.147Z,1011.31
2018-07-31T00:07:25.137Z,1011.28
2018-07-31T00:08:25.155Z,1011.30
2018-07-31T00:09:25.142Z,1011.29
2018-07-31T00:10:25.123Z,1011.32
2018-07-31T00:11:25.137Z,1011.38
2018-07-31T00:12:25.080Z,1011.32
2018-07-31T00:13:25.076Z,1011.35
2018-07-31T00:14:25.058Z,1011.40
2018-07-31T00:15:25.050Z,1011.41
2018-07-31T00:16:25.069Z,1011.43
2018-07-31T00:17:25.030Z,1011.42
2018-07-31T00:18:25.014Z,1011.42
2018-07-31T00:19:25.013Z,1011.42
2018-07-31T00:20:24.993Z,1011.38
2018-07-31T00:21:25.011Z,1011.35
2018-07-31T00:22:24.974Z,1011.36
2018-07-31T00:23:25.018Z,1011.35
2018-07-31T00:24:24.962Z,1011.36
2018-07-31T00:25:25.032Z,1011.35
2018-07-31T00:26:24.920Z,1011.41
2018-07-31T00:27:24.923Z,1011.35
2018-07-31T00:28:24.936Z,1011.34
2018-07-31T00:29:24.894Z,1011.36
2018-07-31T00:30:24.883Z,1011.32
2018-07-31T00:31:24.901Z,1011.36
2018-07-31T00:32:24.866Z,1011.33
2018-07-31T00:33:24.852Z,1011.29
2018-07-31T00:34:24.839Z,1011.32
2018-07-31T00:35:24.821Z,1011.34
2018-07-31T00:36:24.840Z,1011.33
2018-07-31T00:37:24.799Z,1011.32
2018-07-31T00:38:24.786Z,1011.28
2018-07-31T00:39:24.784Z,1011.26
2018-07-31T00:40:24.812Z,1011.28
2018-07-31T00:41:24.756Z,1011.25
2018-07-31T00:42:24.746Z,1011.30
2018-07-31T00:43:24.732Z,1011.26
2018-07-31T00:44:24.751Z,1011.26
2018-07-31T00:45:24.736Z,1011.26
2018-07-31T00:46:24.722Z,1011.24
2018-07-31T00:47:24.694Z,1011.27
2018-07-31T00:48:24.707Z,1011.25
2018-07-31T00:49:24.677Z,1011.28
2018-07-31T00:50:24.658Z,1011.28
2018-07-31T00:51:24.647Z,1011.20
2018-07-31T00:52:24.634Z,1011.20
2018-07-31T00:53:24.654Z,1011.20
2018-07-31T00:54:24.611Z,1011.21
2018-07-31T00:55:24.600Z,1011.24
2018-07-31T00:56:24.588Z,1011.20
2018-07-31T00:57:24.581Z,1011.24
2018-07-31T00:58:24.597Z,1011.19
2018-07-31T00:59:24.555Z,1011.22
2018-07-31T01:00:24.544Z,1011.22
2018-07-31T01:01:24.567Z,1011.19
2018-07-31T01:02:24.557Z,1011.25
2018-07-31T01:03:24.512Z,1011.22
2018-07-31T01:04:24.498Z,1011.22
2018-07-31T01:05:24.514Z,1011.26
2018-07-31T01:06:24.474Z,1011.26
2018-07-31T01:07:24.512Z,1011.25
2018-07-31T01:08:24.454Z,1011.26
2018-07-31T01:09:24.469Z,1011.22
2018-07-31T01:10:24.440Z,1011.27
2018-07-31T01:11:24.460Z,1011.24
2018-07-31T01:12:24.414Z,1011.28
2018-07-31T01:13:24.399Z,1011.25
2018-07-31T01:14:24.393Z,1011.21
2018-07-31T01:15:24.376Z,1011.23
2018-07-31T01:16:24.394Z,1011.22
2018-07-31T01:17:24.353Z,1011.22
2018-07-31T01:18:24.345Z,1011.18
2018-07-31T01:19:24.334Z,1011.19
2018-07-31T01:20:24.321Z,1011.18
2018-07-31T01:21:24.387Z,1011.23
2018-07-31T01:22:24.332Z,1011.20
2018-07-31T01:23:24.287Z,1011.22
2018-07-31T01:24:24.292Z,1011.24
2018-07-31T01:25:24.266Z,1011.20
2018-07-31T01:26:24.282Z,1011.20
2018-07-31T01:27:24.247Z,1011.21
2018-07-31T01:28:24.270Z,1011.21
2018-07-31T01:29:24.224Z,1011.18
2018-07-31T01:30:24.221Z,1011.20
2018-07-31T01:31:24.205Z,1011.24
2018-07-31T01:32:24.193Z,1011.17
2018-07-31T01:33:24.204Z,1011.20
2018-07-31T01:34:24.167Z,1011.19
2018-07-31T01:35:24.157Z,1011.19
2018-07-31T01:36:24.144Z,1011.14
2018-07-31T01:37:24.198Z,1011.18
2018-07-31T01:38:24.124Z,1011.20
2018-07-31T01:39:24.112Z,1011.19
2018-07-31T01:40:24.103Z,1011.12
2018-07-31T01:41:24.090Z,1011.15
2018-07-31T01:42:24.122Z,1011.10
2018-07-31T01:43:24.112Z,1011.13
2018-07-31T01:44:24.061Z,1011.14
2018-07-31T01:45:24.178Z,1011.17
2018-07-31T01:46:24.045Z,1011.14
2018-07-31T01:47:24.028Z,1011.13
2018-07-31T01:48:24.017Z,1011.17
2018-07-31T01:49:24.004Z,1011.16
2018-07-31T01:50:24.026Z,1011.12
2018-07-31T01:51:23.989Z,1011.16
2018-07-31T01:52:23.968Z,1011.12
2018-07-31T01:53:23.966Z,1011.09
2018-07-31T01:54:23.975Z,1011.09
2018-07-31T01:55:23.942Z,1011.12
2018-07-31T01:56:23.930Z,1011.13
2018-07-31T01:57:23.920Z,1011.19
2018-07-31T01:58:23.903Z,1011.16
2018-07-31T01:59:23.929Z,1011.12
2018-07-31T02:00:23.878Z,1011.13
2018-07-31T02:01:23.886Z,1011.11
2018-07-31T02:02:23.859Z,1011.13
2018-07-31T02:03:23.847Z,1011.14
2018-07-31T02:04:23.939Z,1011.15
2018-07-31T02:05:23.830Z,1011.13
2018-07-31T02:06:23.820Z,1011.13
2018-07-31T02:07:23.808Z,1011.13
2018-07-31T02:08:23.795Z,1011.13
2018-07-31T02:09:23.847Z,1011.16
2018-07-31T02:10:23.775Z,1011.12
2018-07-31T02:11:23.766Z,1011.13
2018-07-31T02:12:23.753Z,1011.10
2018-07-31T02:13:23.737Z,1011.14
2018-07-31T02:14:23.757Z,1011.13
2018-07-31T02:15:23.714Z,1011.11
2018-07-31T02:16:23.709Z,1011.15
2018-07-31T02:17:23.743Z,1011.14
2018-07-31T02:18:23.684Z,1011.12
2018-07-31T02:19:23.698Z,1011.13
2018-07-31T02:20:23.656Z,1011.15
2018-07-31T02:21:23.652Z,1011.10
2018-07-31T02:22:23.684Z,1011.16
2018-07-31T02:23:23.663Z,1011.10
2018-07-31T02:24:23.612Z,1011.09
2018-07-31T02:25:23.606Z,1011.13
2018-07-31T02:26:23.593Z,1011.12
2018-07-31T02:27:23.612Z,1011.08
2018-07-31T02:28:23.802Z,1011.16
2018-07-31T02:29:23.579Z,1011.09
2018-07-31T02:30:23.548Z,1011.07
2018-07-31T02:31:23.558Z,1011.12
2018-07-31T02:32:23.520Z,1011.09
2018-07-31T02:33:23.516Z,1011.06
2018-07-31T02:34:23.539Z,1011.05
2018-07-31T02:35:23.489Z,1011.03
2018-07-31T02:36:23.481Z,1011.04
2018-07-31T02:37:23.468Z,1011.03
2018-07-31T02:38:23.455Z,1011.03
2018-07-31T02:39:23.472Z,1010.98
2018-07-31T02:40:23.439Z,1010.99
2018-07-31T02:41:23.426Z,1010.93
2018-07-31T02:42:23.417Z,1010.99
2018-07-31T02:43:23.400Z,1010.97
2018-07-31T02:44:23.432Z,1011.02
2018-07-31T02:45:23.386Z,1011.01
2018-07-31T02:46:23.397Z,1011.02
2018-07-31T02:47:23.383Z,1011.01
2018-07-31T02:48:23.345Z,1011.03
2018-07-31T02:49:23.336Z,1011.04
2018-07-31T02:50:23.325Z,1011.08
2018-07-31T02:51:23.351Z,1011.10
2018-07-31T02:52:23.306Z,1011.11
2018-07-31T02:53:23.297Z,1011.10
2018-07-31T02:54:23.278Z,1011.09
2018-07-31T02:55:23.272Z,1011.09
2018-07-31T02:56:23.290Z,1011.12
2018-07-31T02:57:23.253Z,1011.07
2018-07-31T02:58:23.309Z,1011.12
2018-07-31T02:59:23.223Z,1011.09
2018-07-31T03:00:23.348Z,1011.05
2018-07-31T03:01:23.204Z,1011.07
2018-07-31T03:02:23.194Z,1011.04
2018-07-31T03:03:23.194Z,1011.08
2018-07-31T03:04:23.171Z,1011.05
2018-07-31T03:05:23.201Z,1011.05
2018-07-31T03:06:23.147Z,1011.02
2018-07-31T03:07:23.144Z,1011.05
2018-07-31T03:08:23.131Z,1011.03
2018-07-31T03:09:23.118Z,1011.02
2018-07-31T03:10:23.124Z,1011.01
2018-07-31T03:11:23.094Z,1010.98
2018-07-31T03:12:23.110Z,1011.01
2018-07-31T03:13:23.097Z,1010.98
2018-07-31T03:14:23.057Z,1010.98
2018-07-31T03:15:23.085Z,1010.98
2018-07-31T03:16:23.080Z,1010.98
2018-07-31T03:17:23.039Z,1010.99
2018-07-31T03:18:23.023Z,1010.95
2018-07-31T03:19:23.005Z,1011.00
2018-07-31T03:20:22.996Z,1011.05
2018-07-31T03:21:23.031Z,1011.09
2018-07-31T03:22:22.983Z,1011.06
2018-07-31T03:23:22.965Z,1011.10
2018-07-31T03:24:22.951Z,1011.08
2018-07-31T03:25:22.942Z,1011.11
2018-07-31T03:26:22.966Z,1011.19
2018-07-31T03:27:23.044Z,1011.14
2018-07-31T03:28:22.910Z,1011.20
2018-07-31T03:29:22.897Z,1011.18
2018-07-31T03:30:22.884Z,1011.18
2018-07-31T03:31:22.875Z,1011.22
2018-07-31T03:32:22.894Z,1011.16
2018-07-31T03:33:22.850Z,1011.14
2018-07-31T03:34:22.841Z,1011.20
2018-07-31T03:35:22.843Z,1011.24
2018-07-31T03:36:22.820Z,1011.19
2018-07-31T03:37:22.846Z,1011.20
2018-07-31T03:38:22.833Z,1011.19
2018-07-31T03:39:22.788Z,1011.18
2018-07-31T03:40:22.812Z,1011.20
2018-07-31T03:41:22.769Z,1011.20
2018-07-31T03:42:22.753Z,1011.22
2018-07-31T03:43:22.799Z,1011.24
2018-07-31T03:44:22.727Z,1011.22
2018-07-31T03:45:22.767Z,1011.20
2018-07-31T03:46:22.744Z,1011.26
2018-07-31T03:47:22.696Z,1011.27
2018-07-31T03:48:22.724Z,1011.24
2018-07-31T03:49:22.675Z,1011.23
2018-07-31T03:50:22.663Z,1011.29
2018-07-31T03:51:22.657Z,1011.24
2018-07-31T03:52:22.642Z,1011.27
2018-07-31T03:53:22.667Z,1011.32
2018-07-31T03:54:22.616Z,1011.27
2018-07-31T03:55:22.609Z,1011.26
2018-07-31T03:56:22.654Z,1011.24
2018-07-31T03:57:22.585Z,1011.25
2018-07-31T03:58:22.606Z,1011.29
2018-07-31T03:59:22.618Z,1011.26
2018-07-31T04:00:22.583Z,1011.26
2018-07-31T04:01:22.566Z,1011.25
2018-07-31T04:02:22.528Z,1011.30
2018-07-31T04:03:22.556Z,1011.25
2018-07-31T04:04:22.512Z,1011.24
2018-07-31T04:05:22.531Z,1011.26
2018-07-31T04:06:22.491Z,1011.24
2018-07-31T04:07:22.615Z,1011.29
2018-07-31T04:08:22.465Z,1011.26
2018-07-31T04:09:22.454Z,1011.22
2018-07-31T04:10:22.452Z,1011.23
2018-07-31T04:11:22.459Z,1011.21
2018-07-31T04:12:22.415Z,1011.18
2018-07-31T04:13:22.411Z,1011.16
2018-07-31T04:14:22.397Z,1011.19
2018-07-31T04:15:22.440Z,1011.20
2018-07-31T04:16:22.380Z,1011.14
2018-07-31T04:17:22.391Z,1011.15
2018-07-31T04:18:22.383Z,1011.14
2018-07-31T04:19:22.372Z,1011.19
2018-07-31T04:20:22.332Z,1011.15
2018-07-31T04:21:22.329Z,1011.21
2018-07-31T04:22:22.318Z,1011.15
2018-07-31T04:23:22.303Z,1011.16
2018-07-31T04:24:22.328Z,1011.20
2018-07-31T04:25:22.281Z,1011.15
2018-07-31T04:26:22.307Z,1011.14
2018-07-31T04:27:22.259Z,1011.16
2018-07-31T04:28:22.248Z,1011.19
2018-07-31T04:29:22.289Z,1011.19
2018-07-31T04:30:22.225Z,1011.12
2018-07-31T04:31:22.210Z,1011.16
2018-07-31T04:32:22.200Z,1011.13
2018-07-31T04:33:22.223Z,1011.13
2018-07-31T04:34:22.181Z,1011.14
2018-07-31T04:35:22.201Z,1011.15
2018-07-31T04:36:22.159Z,1011.22
2018-07-31T04:37:22.175Z,1011.20
2018-07-31T04:38:22.140Z,1011.19
2018-07-31T04:39:22.151Z,1011.20
2018-07-31T04:40:22.114Z,1011.24
2018-07-31T04:41:22.184Z,1011.19
2018-07-31T04:42:22.176Z,1011.23
2018-07-31T04:43:22.081Z,1011.18
2018-07-31T04:44:22.069Z,1011.24
2018-07-31T04:45:22.064Z,1011.26
2018-07-31T04:46:22.111Z,1011.28
2018-07-31T04:47:22.040Z,1011.28
2018-07-31T04:48:22.226Z,1011.33
2018-07-31T04:49:22.015Z,1011.33
2018-07-31T04:50:22.058Z,1011.34
2018-07-31T04:51:22.002Z,1011.36
2018-07-31T04:52:21.981Z,1011.35
2018-07-31T04:53:22.051Z,1011.36
2018-07-31T04:54:21.961Z,1011.33
2018-07-31T04:55:21.952Z,1011.33
2018-07-31T04:56:21.936Z,1011.34
2018-07-31T04:57:21.934Z,1011.37
2018-07-31T04:58:21.955Z,1011.32
2018-07-31T04:59:21.908Z,1011.33
2018-07-31T05:00:21.897Z,1011.32
2018-07-31T05:01:21.881Z,1011.34
2018-07-31T05:02:21.869Z,1011.38
2018-07-31T05:03:21.892Z,1011.32
2018-07-31T05:04:21.972Z,1011.34
2018-07-31T05:05:21.841Z,1011.34
2018-07-31T05:06:21.855Z,1011.37
2018-07-31T05:07:21.818Z,1011.36
2018-07-31T05:08:21.804Z,1011.38
2018-07-31T05:09:21.909Z,1011.35
2018-07-31T05:10:21.782Z,1011.34
2018-07-31T05:11:21.804Z,1011.33
2018-07-31T05:12:21.775Z,1011.30
2018-07-31T05:13:21.753Z,1011.30
2018-07-31T05:14:21.739Z,1011.32
2018-07-31T05:15:21.726Z,1011.30
2018-07-31T05:16:21.753Z,1011.33
2018-07-31T05:17:21.713Z,1011.30
2018-07-31T05:18:21.745Z,1011.29
2018-07-31T05:19:21.680Z,1011.32
2018-07-31T05:20:21.673Z,1011.35
2018-07-31T05:21:21.699Z,1011.32
2018-07-31T05:22:21.688Z,1011.31
2018-07-31T05:23:21.650Z,1011.34
2018-07-31T05:24:21.630Z,1011.37
2018-07-31T05:25:21.736Z,1011.40
2018-07-31T05:26:21.617Z,1011.37
2018-07-31T05:27:21.593Z,1011.30
2018-07-31T05:28:21.584Z,1011.34
2018-07-31T05:29:21.576Z,1011.32
2018-07-31T05:30:21.588Z,1011.34
2018-07-31T05:31:21.553Z,1011.33
2018-07-31T05:32:21.536Z,1011.35
2018-07-31T05:33:21.627Z,1011.33
2018-07-31T05:34:21.522Z,1011.34
2018-07-31T05:35:21.537Z,1011.32
2018-07-31T05:36:21.567Z,1011.38
2018-07-31T05:37:21.482Z,1011.41
2018-07-31T05:38:21.485Z,1011.41
2018-07-31T05:39:21.466Z,1011.44
2018-07-31T05:40:21.455Z,1011.38
2018-07-31T05:41:21.467Z,1011.42
2018-07-31T05:42:21.431Z,1011.42
2018-07-31T05:43:21.440Z,1011.44
2018-07-31T05:44:21.407Z,1011.44
2018-07-31T05:45:21.403Z,1011.52
2018-07-31T05:46:21.386Z,1011.58
2018-07-31T05:47:21.379Z,1011.58
2018-07-31T05:48:21.394Z,1011.54
2018-07-31T05:49:21.362Z,1011.54
2018-07-31T05:50:21.350Z,1011.58
2018-07-31T05:51:21.354Z,1011.57
2018-07-31T05:52:21.373Z,1011.61
2018-07-31T05:53:21.309Z,1011.61
2018-07-31T05:54:21.298Z,1011.66
2018-07-31T05:55:21.319Z,1011.67
2018-07-31T05:56:21.288Z,1011.65
2018-07-31T05:57:21.319Z,1011.65
2018-07-31T05:58:21.254Z,1011.65
2018-07-31T05:59:21.280Z,1011.70
2018-07-31T06:00:21.240Z,1011.66
2018-07-31T06:01:21.224Z,1011.67
2018-07-31T06:02:21.211Z,1011.66
2018-07-31T06:03:21.230Z,1011.65
2018-07-31T06:04:21.199Z,1011.68
2018-07-31T06:05:21.849Z,1011.63
2018-07-31T06:06:21.162Z,1011.66
2018-07-31T06:07:21.172Z,1011.63
2018-07-31T06:08:21.869Z,1011.62
2018-07-31T06:09:21.153Z,1011.59
2018-07-31T06:10:21.158Z,1011.64
2018-07-31T06:11:21.181Z,1011.59
2018-07-31T06:12:21.104Z,1011.58
2018-07-31T06:13:21.087Z,1011.60
2018-07-31T06:14:21.076Z,1011.58
2018-07-31T06:15:21.152Z,1011.52
2018-07-31T06:16:21.103Z,1011.51
2018-07-31T06:17:21.076Z,1011.51
2018-07-31T06:18:21.045Z,1011.51
2018-07-31T06:19:21.023Z,1011.54
2018-07-31T06:20:21.023Z,1011.52
2018-07-31T06:21:20.999Z,1011.54
2018-07-31T06:22:21.021Z,1011.53
2018-07-31T06:23:20.978Z,1011.57
2018-07-31T06:24:20.991Z,1011.60
2018-07-31T06:25:20.953Z,1011.60
2018-07-31T06:26:20.943Z,1011.67
2018-07-31T06:27:20.927Z,1011.68
2018-07-31T06:28:20.951Z,1011.67
2018-07-31T06:29:20.918Z,1011.69
2018-07-31T06:30:20.905Z,1011.69
2018-07-31T06:31:20.930Z,1011.71
2018-07-31T06:32:20.919Z,1011.74
2018-07-31T06:33:20.882Z,1011.71
2018-07-31T06:34:20.881Z,1011.76
2018-07-31T06:35:20.847Z,1011.76
2018-07-31T06:36:20.836Z,1011.78
2018-07-31T06:37:20.825Z,1011.79
2018-07-31T06:38:20.816Z,1011.80
2018-07-31T06:39:20.858Z,1011.78
2018-07-31T06:40:20.870Z,1011.80
2018-07-31T06:41:20.780Z,1011.81
2018-07-31T06:42:20.766Z,1011.77
2018-07-31T06:43:20.758Z,1011.81
2018-07-31T06:44:20.746Z,1011.86
2018-07-31T06:45:20.767Z,1011.84
2018-07-31T06:46:20.721Z,1011.85
2018-07-31T06:47:20.709Z,1011.83
2018-07-31T06:48:20.785Z,1011.82
2018-07-31T06:49:20.739Z,1011.84
2018-07-31T06:50:20.711Z,1011.92
2018-07-31T06:51:20.742Z,1011.83
2018-07-31T06:52:20.658Z,1011.81
2018-07-31T06:53:20.657Z,1011.80
2018-07-31T06:54:20.641Z,1011.81
2018-07-31T06:55:20.627Z,1011.80
2018-07-31T06:56:20.652Z,1011.81
2018-07-31T06:57:20.599Z,1011.80
2018-07-31T06:58:20.632Z,1011.87
2018-07-31T06:59:20.579Z,1011.90
2018-07-31T07:00:20.573Z,1011.82
2018-07-31T07:01:20.557Z,1011.90
2018-07-31T07:02:20.586Z,1011.90
2018-07-31T07:03:20.539Z,1011.95
2018-07-31T07:04:20.534Z,1011.97
2018-07-31T07:05:20.519Z,1011.96
2018-07-31T07:06:20.504Z,1011.97
2018-07-31T07:07:20.529Z,1011.93
2018-07-31T07:08:20.515Z,1011.97
2018-07-31T07:09:20.543Z,1011.91
2018-07-31T07:10:20.465Z,1011.94
2018-07-31T07:11:20.449Z,1011.94
2018-07-31T07:12:20.517Z,1011.91
2018-07-31T07:13:20.462Z,1011.91
2018-07-31T07:14:20.418Z,1011.98
2018-07-31T07:15:20.511Z,1011.98
2018-07-31T07:16:20.399Z,1011.95
2018-07-31T07:17:20.386Z,1012.00
2018-07-31T07:18:20.373Z,1011.98
2018-07-31T07:19:20.361Z,1012.02
2018-07-31T07:20:20.387Z,1012.03
2018-07-31T07:21:20.339Z,1012.05
2018-07-31T07:22:20.372Z,1011.97
2018-07-31T07:23:20.315Z,1012.00
2018-07-31T07:24:20.304Z,1011.95
2018-07-31T07:25:20.328Z,1011.95
2018-07-31T07:26:20.288Z,1011.95
2018-07-31T07:27:20.267Z,1011.96
2018-07-31T07:28:20.261Z,1011.92
2018-07-31T07:29:20.275Z,1011.84
2018-07-31T07:30:20.238Z,1011.79
2018-07-31T07:31:20.299Z,1011.81
2018-07-31T07:32:20.219Z,1011.68
2018-07-31T07:33:20.234Z,1011.69
2018-07-31T07:34:20.196Z,1011.77
2018-07-31T07:35:20.193Z,1011.76
2018-07-31T07:36:20.174Z,1011.79
2018-07-31T07:37:20.196Z,1011.79
2018-07-31T07:38:20.149Z,1011.78
2018-07-31T07:39:20.139Z,1011.75
2018-07-31T07:40:20.219Z,1011.77
2018-07-31T07:41:20.148Z,1011.72
2018-07-31T07:42:20.111Z,1011.70
2018-07-31T07:43:20.094Z,1011.64
2018-07-31T07:44:20.111Z,1011.69
2018-07-31T07:45:20.078Z,1011.62
2018-07-31T07:46:20.060Z,1011.59
2018-07-31T07:47:20.047Z,1011.62
2018-07-31T07:48:20.087Z,1011.63
2018-07-31T07:49:20.027Z,1011.65
2018-07-31T07:50:20.016Z,1011.65
2018-07-31T07:51:20.044Z,1011.63
2018-07-31T07:52:19.995Z,1011.68
2018-07-31T07:53:19.985Z,1011.64
2018-07-31T07:54:20.102Z,1011.70
2018-07-31T07:55:20.038Z,1011.70
2018-07-31T07:56:19.978Z,1011.74
2018-07-31T07:57:19.946Z,1011.71
2018-07-31T07:58:19.972Z,1011.77
2018-07-31T07:59:19.918Z,1011.75
2018-07-31T08:00:19.907Z,1011.75
2018-07-31T08:01:19.898Z,1011.76
2018-07-31T08:02:19.882Z,1011.80
2018-07-31T08:03:19.915Z,1011.85
2018-07-31T08:04:19.863Z,1011.84
2018-07-31T08:05:19.855Z,1011.83
2018-07-31T08:06:19.843Z,1011.89
2018-07-31T08:07:19.831Z,1011.92
2018-07-31T08:08:19.844Z,1011.97
2018-07-31T08:09:19.809Z,1011.96
2018-07-31T08:10:19.795Z,1011.93
2018-07-31T08:11:19.793Z,1011.87
2018-07-31T08:12:19.804Z,1011.91
2018-07-31T08:13:19.776Z,1011.87
2018-07-31T08:14:19.758Z,1011.85
2018-07-31T08:15:19.787Z,1011.92
2018-07-31T08:16:19.755Z,1011.86
2018-07-31T08:17:19.799Z,1011.86
2018-07-31T08:18:19.709Z,1011.82
2018-07-31T08:19:19.706Z,1011.75
2018-07-31T08:20:19.734Z,1011.73
2018-07-31T08:21:19.679Z,1011.75
2018-07-31T08:22:19.670Z,1011.78
2018-07-31T08:23:19.674Z,1011.82
2018-07-31T08:24:19.645Z,1011.86
2018-07-31T08:25:19.654Z,1011.90
2018-07-31T08:26:19.660Z,1011.87
2018-07-31T08:27:19.608Z,1011.87
2018-07-31T08:28:19.643Z,1011.85
2018-07-31T08:29:19.601Z,1011.92
2018-07-31T08:30:19.575Z,1011.91
2018-07-31T08:31:19.567Z,1011.93
2018-07-31T08:32:19.560Z,1011.93
2018-07-31T08:33:19.577Z,1011.95
2018-07-31T08:34:19.555Z,1011.95
2018-07-31T08:35:19.530Z,1011.97
2018-07-31T08:36:19.511Z,1011.96
2018-07-31T08:37:19.531Z,1011.94
2018-07-31T08:38:20.422Z,1011.89
2018-07-31T08:39:19.531Z,1011.96
2018-07-31T08:40:19.471Z,1011.94
2018-07-31T08:41:19.579Z,1011.92
2018-07-31T08:42:19.448Z,1012.03
2018-07-31T08:43:19.435Z,1012.03
2018-07-31T08:44:19.433Z,1012.02
2018-07-31T08:45:19.444Z,1012.07
2018-07-31T08:46:19.399Z,1012.04
2018-07-31T08:47:19.396Z,1012.06
2018-07-31T08:48:19.385Z,1012.09
2018-07-31T08:49:19.368Z,1011.99
2018-07-31T08:50:19.404Z,1012.04
2018-07-31T08:51:19.378Z,1012.03
2018-07-31T08:52:19.345Z,1012.07
2018-07-31T08:53:19.355Z,1012.06
2018-07-31T08:54:19.316Z,1012.11
2018-07-31T08:55:19.344Z,1012.04
2018-07-31T08:56:19.290Z,1012.07
2018-07-31T08:57:19.306Z,1012.06
2018-07-31T08:58:19.276Z,1012.06
2018-07-31T08:59:19.267Z,1012.10
2018-07-31T09:00:19.280Z,1012.10
2018-07-31T09:01:19.250Z,1012.09
2018-07-31T09:02:19.263Z,1012.12
2018-07-31T09:03:19.220Z,1012.12
2018-07-31T09:04:19.202Z,1012.07
2018-07-31T09:05:19.198Z,1012.02
2018-07-31T09:06:19.188Z,1012.02
2018-07-31T09:07:19.214Z,1012.04
2018-07-31T09:08:19.225Z,1012.09
2018-07-31T09:09:19.152Z,1012.05
2018-07-31T09:10:19.146Z,1012.07
2018-07-31T09:11:19.131Z,1012.05
2018-07-31T09:12:19.151Z,1012.09
2018-07-31T09:13:19.144Z,1012.05
2018-07-31T09:14:19.099Z,1012.07
2018-07-31T09:15:19.088Z,1012.13
2018-07-31T09:16:19.073Z,1012.04
2018-07-31T09:17:19.074Z,1011.99
2018-07-31T09:18:19.092Z,1012.03
2018-07-31T09:19:19.042Z,1012.03
2018-07-31T09:20:19.036Z,1012.04
2018-07-31T09:21:19.073Z,1012.05
2018-07-31T09:22:19.089Z,1012.08
2018-07-31T09:23:18.996Z,1012.06
2018-07-31T09:24:18.994Z,1012.04
2018-07-31T09:25:18.977Z,1012.05
2018-07-31T09:26:18.965Z,1012.09
2018-07-31T09:27:18.986Z,1012.11
2018-07-31T09:28:18.959Z,1012.10
2018-07-31T09:29:18.976Z,1012.13
2018-07-31T09:30:18.942Z,1012.08
2018-07-31T09:31:18.946Z,1012.09
2018-07-31T09:32:18.901Z,1012.10
2018-07-31T09:33:18.897Z,1012.09
2018-07-31T09:34:18.976Z,1012.08
2018-07-31T09:35:18.864Z,1012.13
2018-07-31T09:36:18.856Z,1012.09
2018-07-31T09:37:18.849Z,1012.14
2018-07-31T09:38:18.839Z,1012.17
2018-07-31T09:39:18.862Z,1012.16
2018-07-31T09:40:18.812Z,1012.22
2018-07-31T09:41:18.800Z,1012.16
2018-07-31T09:42:18.795Z,1012.13
2018-07-31T09:43:18.789Z,1012.10
2018-07-31T09:44:18.810Z,1012.16
2018-07-31T09:45:18.755Z,1012.16
2018-07-31T09:46:18.751Z,1012.22
2018-07-31T09:47:18.733Z,1012.19
2018-07-31T09:48:18.731Z,1012.23
2018-07-31T09:49:18.753Z,1012.24
2018-07-31T09:50:18.702Z,1012.26
2018-07-31T09:51:18.729Z,1012.26
2018-07-31T09:52:18.714Z,1012.28
2018-07-31T09:53:18.698Z,1012.32
2018-07-31T09:54:18.670Z,1012.22
2018-07-31T09:55:18.644Z,1012.30
2018-07-31T09:56:18.637Z,1012.25
2018-07-31T09:57:18.653Z,1012.30
2018-07-31T09:58:18.626Z,1012.29
2018-07-31T09:59:18.623Z,1012.30
2018-07-31T10:00:18.620Z,1012.34
2018-07-31T10:01:18.626Z,1012.29
2018-07-31T10:02:18.584Z,1012.34
2018-07-31T10:03:18.563Z,1012.33
2018-07-31T10:04:18.552Z,1012.30
2018-07-31T10:05:18.552Z,1012.31
2018-07-31T10:06:18.569Z,1012.32
2018-07-31T10:07:18.519Z,1012.37
2018-07-31T10:08:18.510Z,1012.33
2018-07-31T10:09:18.509Z,1012.35
2018-07-31T10:10:18.500Z,1012.35
2018-07-31T10:11:18.519Z,1012.29
2018-07-31T10:12:18.501Z,1012.36
2018-07-31T10:13:18.458Z,1012.40
2018-07-31T10:14:18.516Z,1012.44
2018-07-31T10:15:18.445Z,1012.38
2018-07-31T10:16:18.422Z,1012.38
2018-07-31T10:17:18.481Z,1012.33
2018-07-31T10:18:18.487Z,1012.36
2018-07-31T10:19:18.397Z,1012.39
2018-07-31T10:20:18.381Z,1012.41
2018-07-31T10:21:18.369Z,1012.37
2018-07-31T10:22:18.392Z,1012.44
2018-07-31T10:23:18.346Z,1012.33
2018-07-31T10:24:18.339Z,1012.38
2018-07-31T10:25:18.368Z,1012.35
2018-07-31T10:26:18.312Z,1012.48
2018-07-31T10:27:18.310Z,1012.48
2018-07-31T10:28:18.296Z,1012.54
2018-07-31T10:29:18.285Z,1012.52
2018-07-31T10:30:18.366Z,1012.45
2018-07-31T10:31:18.262Z,1012.48
2018-07-31T10:32:18.260Z,1012.53
2018-07-31T10:33:18.314Z,1012.52
2018-07-31T10:34:18.261Z,1012.56
2018-07-31T10:35:18.232Z,1012.53
2018-07-31T10:36:18.214Z,1012.51
2018-07-31T10:37:18.226Z,1012.51
2018-07-31T10:38:18.241Z,1012.58
2018-07-31T10:39:18.183Z,1012.54
2018-07-31T10:40:18.169Z,1012.58
2018-07-31T10:41:18.157Z,1012.64
2018-07-31T10:42:18.144Z,1012.63
2018-07-31T10:43:18.174Z,1012.64
2018-07-31T10:44:18.125Z,1012.66
2018-07-31T10:45:18.130Z,1012.66
2018-07-31T10:46:18.135Z,1012.66
2018-07-31T10:47:18.119Z,1012.70
2018-07-31T10:48:18.966Z,1012.61
2018-07-31T10:49:18.171Z,1012.66
2018-07-31T10:50:18.060Z,1012.63
2018-07-31T10:51:18.053Z,1012.65
2018-07-31T10:52:18.066Z,1012.60
2018-07-31T10:53:18.028Z,1012.59
2018-07-31T10:54:18.018Z,1012.62
2018-07-31T10:55:18.007Z,1012.65
2018-07-31T10:56:17.997Z,1012.63
2018-07-31T10:57:18.054Z,1012.64
2018-07-31T10:58:18.028Z,1012.59
2018-07-31T10:59:17.962Z,1012.64
2018-07-31T11:00:18.035Z,1012.59
2018-07-31T11:01:17.940Z,1012.62
2018-07-31T11:02:17.928Z,1012.56
2018-07-31T11:03:17.934Z,1012.71
2018-07-31T11:04:17.950Z,1012.61
2018-07-31T11:05:17.939Z,1012.61
2018-07-31T11:06:17.998Z,1012.60
2018-07-31T11:07:17.881Z,1012.61
2018-07-31T11:08:17.869Z,1012.63
2018-07-31T11:09:17.861Z,1012.65
2018-07-31T11:10:17.882Z,1012.66
2018-07-31T11:11:17.864Z,1012.64
2018-07-31T11:12:17.824Z,1012.70
2018-07-31T11:13:17.911Z,1012.63
2018-07-31T11:14:17.800Z,1012.65
2018-07-31T11:15:17.819Z,1012.61
2018-07-31T11:16:17.781Z,1012.56
2018-07-31T11:17:17.818Z,1012.61
2018-07-31T11:18:17.765Z,1012.63
2018-07-31T11:19:17.752Z,1012.67
2018-07-31T11:20:17.736Z,1012.62
2018-07-31T11:21:17.765Z,1012.58
2018-07-31T11:22:17.713Z,1012.58
2018-07-31T11:23:17.714Z,1012.54
2018-07-31T11:24:17.728Z,1012.60
2018-07-31T11:25:17.688Z,1012.61
2018-07-31T11:26:17.713Z,1012.68
2018-07-31T11:27:17.687Z,1012.59
2018-07-31T11:28:17.677Z,1012.63
2018-07-31T11:29:17.637Z,1012.65
2018-07-31T11:30:17.627Z,1012.57
2018-07-31T11:31:17.615Z,1012.59
2018-07-31T11:32:17.663Z,1012.61
2018-07-31T11:33:17.591Z,1012.60
2018-07-31T11:34:17.583Z,1012.65
2018-07-31T11:35:17.568Z,1012.61
2018-07-31T11:36:17.561Z,1012.59
2018-07-31T11:37:17.592Z,1012.59
2018-07-31T11:38:17.544Z,1012.59
2018-07-31T11:39:17.528Z,1012.58
2018-07-31T11:40:17.558Z,1012.51
2018-07-31T11:41:17.512Z,1012.54
2018-07-31T11:42:17.515Z,1012.62
2018-07-31T11:43:17.492Z,1012.60
2018-07-31T11:44:17.498Z,1012.54
2018-07-31T11:45:17.465Z,1012.57
2018-07-31T11:46:17.452Z,1012.57
2018-07-31T11:47:17.444Z,1012.49
2018-07-31T11:48:17.435Z,1012.60
2018-07-31T11:49:17.451Z,1012.66
2018-07-31T11:50:17.436Z,1012.64
2018-07-31T11:51:17.395Z,1012.58
2018-07-31T11:52:17.390Z,1012.60
2018-07-31T11:53:17.381Z,1012.60
2018-07-31T11:54:17.420Z,1012.60
2018-07-31T11:55:17.359Z,1012.63
2018-07-31T11:56:17.345Z,1012.54
2018-07-31T11:57:17.333Z,1012.62
2018-07-31T11:58:17.323Z,1012.71
2018-07-31T11:59:17.431Z,1012.70
2018-07-31T12:00:17.299Z,1012.70
2018-07-31T12:01:17.298Z,1012.66
2018-07-31T12:02:17.279Z,1012.63
2018-07-31T12:03:17.269Z,1012.66
2018-07-31T12:04:17.329Z,1012.62
2018-07-31T12:05:17.247Z,1012.63